createdAt,value
2019-04-13T00:01:49.214Z,6.50
2019-04-13T00:06:50.063Z,5.77
2019-04-13T00:11:47.897Z,5.47
2019-04-13T00:16:43.980Z,6.40
2019-04-13T00:21:40.003Z,5.70
2019-04-13T00:26:35.927Z,7.63
2019-04-13T00:31:31.923Z,5.70
2019-04-13T00:36:27.861Z,6.67
2019-04-13T00:41:23.785Z,6.00
2019-04-13T00:46:19.705Z,5.97
2019-04-13T00:51:16.212Z,6.53
2019-04-13T00:56:12.318Z,6.30
2019-04-13T01:01:08.245Z,6.40
2019-04-13T01:06:04.206Z,5.90
2019-04-13T01:11:00.226Z,6.80
2019-04-13T01:15:56.195Z,7.77
2019-04-13T01:20:55.789Z,8.87
2019-04-13T01:25:51.729Z,9.20
2019-04-13T01:30:47.695Z,6.33
2019-04-13T01:35:43.618Z,4.43
2019-04-13T01:40:39.747Z,9.93
2019-04-13T01:45:35.717Z,9.77
2019-04-13T01:50:36.293Z,9.27
2019-04-13T01:55:32.431Z,8.53
2019-04-13T02:00:39.286Z,9.20
2019-04-13T02:05:42.884Z,8.97
2019-04-13T02:10:46.674Z,8.80
2019-04-13T02:15:42.699Z,8.90
2019-04-13T02:20:41.908Z,8.47
2019-04-13T02:25:37.933Z,8.63
2019-04-13T02:30:33.868Z,8.67
2019-04-13T02:35:36.004Z,8.63
2019-04-13T02:40:27.797Z,7.43
2019-04-13T02:45:23.730Z,8.07
2019-04-13T02:50:19.858Z,8.20
2019-04-13T02:55:15.790Z,8.80
2019-04-13T03:00:12.452Z,7.53
2019-04-13T03:05:08.795Z,9.47
2019-04-13T03:10:05.205Z,8.50
2019-04-13T03:15:01.123Z,7.60
2019-04-13T03:20:07.797Z,6.13
2019-04-13T03:25:05.038Z,8.83
2019-04-13T03:30:01.053Z,7.63
2019-04-13T03:34:56.977Z,6.80
2019-04-13T03:39:52.987Z,7.70
2019-04-13T03:44:48.905Z,7.50
2019-04-13T03:49:44.834Z,4.77
2019-04-13T03:54:40.764Z,6.70
2019-04-13T03:59:36.682Z,7.80
2019-04-13T04:04:32.606Z,7.37
2019-04-13T04:09:28.522Z,7.83
2019-04-13T04:14:24.429Z,5.93
2019-04-13T04:19:20.353Z,8.40
2019-04-13T04:24:16.357Z,6.23
2019-04-13T04:29:12.275Z,5.73
2019-04-13T04:34:08.203Z,7.40
2019-04-13T04:39:05.627Z,8.23
2019-04-13T04:44:01.948Z,9.20
2019-04-13T04:48:57.966Z,8.63
2019-04-13T04:53:53.894Z,9.27
2019-04-13T04:58:49.815Z,10.07
2019-04-13T05:03:45.784Z,9.30
2019-04-13T05:08:43.584Z,10.50
2019-04-13T05:13:43.528Z,9.47
2019-04-13T05:18:41.818Z,10.80
2019-04-13T05:23:41.878Z,10.60
2019-04-13T05:28:39.866Z,11.50
2019-04-13T05:38:55.902Z,7.87
2019-04-13T05:43:52.663Z,8.47
2019-04-13T05:48:49.181Z,8.57
2019-04-13T05:53:47.688Z,7.70
2019-04-13T05:58:44.377Z,8.93
2019-04-13T06:03:40.989Z,9.27
2019-04-13T06:08:37.600Z,9.80
2019-04-13T06:13:34.153Z,8.60
2019-04-13T06:18:30.574Z,9.13
2019-04-13T06:23:26.776Z,9.00
2019-04-13T06:28:22.727Z,11.30
2019-04-13T06:33:23.395Z,10.33
2019-04-13T06:38:21.721Z,10.13
2019-04-13T06:43:17.394Z,11.97
2019-04-13T06:48:13.436Z,10.90
2019-04-13T06:53:09.497Z,12.20
2019-04-13T06:58:05.542Z,11.83
2019-04-13T07:03:01.567Z,7.40
2019-04-13T07:08:14.772Z,8.27
2019-04-13T07:13:24.941Z,11.30
2019-04-13T07:18:21.523Z,10.70
2019-04-13T07:23:17.476Z,10.93
2019-04-13T07:28:13.402Z,13.73
2019-04-13T07:33:09.437Z,8.30
2019-04-13T07:38:05.403Z,12.53
2019-04-13T07:43:01.428Z,11.80
2019-04-13T07:48:11.581Z,13.30
2019-04-13T07:53:09.422Z,13.97
2019-04-13T07:58:05.467Z,12.77
2019-04-13T08:03:01.390Z,11.40
2019-04-13T08:07:57.315Z,10.70
2019-04-13T08:12:53.249Z,15.17
2019-04-13T08:17:53.560Z,13.57
2019-04-13T08:22:47.500Z,13.07
2019-04-13T08:27:43.444Z,13.30
2019-04-13T08:32:41.783Z,13.40
2019-04-13T08:37:52.865Z,13.20
2019-04-13T08:48:01.242Z,11.17
2019-04-13T08:53:00.151Z,13.60
2019-04-13T08:58:07.145Z,14.63
2019-04-13T09:03:13.851Z,11.50
2019-04-13T09:08:28.642Z,12.97
2019-04-13T09:13:15.208Z,12.77
2019-04-13T09:18:16.382Z,8.80
2019-04-13T09:28:36.784Z,11.63
2019-04-13T09:33:38.490Z,14.40
2019-04-13T09:38:42.205Z,12.30
2019-04-13T09:43:40.050Z,14.60
2019-04-13T09:48:38.575Z,10.20
2019-04-13T09:53:38.729Z,13.17
2019-04-13T09:58:37.149Z,12.13
2019-04-13T10:03:39.165Z,11.70
2019-04-13T10:08:55.809Z,12.10
2019-04-13T10:19:01.348Z,9.60
2019-04-13T10:23:58.752Z,10.93
2019-04-13T10:29:07.898Z,12.17
2019-04-13T10:34:11.741Z,12.47
2019-04-13T10:39:16.159Z,11.37
2019-04-13T10:44:17.310Z,13.53
2019-04-13T10:49:34.334Z,12.60
2019-04-13T10:54:36.392Z,13.90
2019-04-13T10:59:40.140Z,12.47
2019-04-13T11:04:40.443Z,11.90
2019-04-13T11:09:39.910Z,11.57
2019-04-13T11:14:40.684Z,13.20
2019-04-13T11:19:44.128Z,14.40
2019-04-13T11:24:42.811Z,15.33
2019-04-13T11:29:59.471Z,15.30
2019-04-13T11:35:05.405Z,13.90
2019-04-13T11:40:03.533Z,12.63
2019-04-13T11:45:22.674Z,16.00
2019-04-13T11:50:21.363Z,15.03
2019-04-13T11:55:25.248Z,12.83
2019-04-13T12:00:43.881Z,14.50
2019-04-13T12:05:42.483Z,14.60
2019-04-13T12:10:45.861Z,13.83
2019-04-13T12:16:12.023Z,13.87
2019-04-13T12:21:36.223Z,12.13
2019-04-13T12:26:37.085Z,11.80
2019-04-13T12:31:39.331Z,8.80
2019-04-13T12:36:38.958Z,13.87
2019-04-13T12:42:00.872Z,13.63
2019-04-13T12:46:59.447Z,14.37
2019-04-13T12:52:00.859Z,15.33
2019-04-13T12:57:00.441Z,14.83
2019-04-13T13:02:10.812Z,13.27
2019-04-13T13:07:19.596Z,8.77
2019-04-13T13:12:23.479Z,15.20
2019-04-13T13:17:28.450Z,17.17
2019-04-13T13:22:25.473Z,13.50
2019-04-13T13:27:29.155Z,17.33
2019-04-13T13:32:31.414Z,15.27
2019-04-13T13:37:31.663Z,14.90
2019-04-13T13:42:30.519Z,11.03
2019-04-13T13:47:28.045Z,14.50
2019-04-13T13:52:32.317Z,16.27
2019-04-13T13:57:35.842Z,17.40
2019-04-13T14:02:33.442Z,16.53
2019-04-13T14:07:32.882Z,16.90
2019-04-13T14:12:31.640Z,17.40
2019-04-13T14:17:34.542Z,17.67
2019-04-13T14:22:32.384Z,18.10
2019-04-13T14:27:30.751Z,17.17
2019-04-13T14:32:30.122Z,16.73
2019-04-13T14:37:36.397Z,16.00
2019-04-13T14:42:34.333Z,16.53
2019-04-13T14:47:37.324Z,17.50
2019-04-13T14:52:36.086Z,17.30
2019-04-13T14:57:38.981Z,17.53
2019-04-13T15:02:37.202Z,16.50
2019-04-13T15:07:35.301Z,19.10
2019-04-13T15:12:37.009Z,16.80
2019-04-13T15:17:56.594Z,17.90
2019-04-13T15:22:57.326Z,16.00
2019-04-13T15:27:56.855Z,15.63
2019-04-13T15:32:56.036Z,15.43
2019-04-13T15:37:56.043Z,13.70
2019-04-13T15:43:00.091Z,14.30
2019-04-13T15:47:55.249Z,11.60
2019-04-13T15:52:58.226Z,14.10
2019-04-13T15:57:55.577Z,15.83
2019-04-13T16:02:56.319Z,16.00
2019-04-13T16:08:05.286Z,14.70
2019-04-13T16:13:08.799Z,15.23
2019-04-13T16:18:11.800Z,13.50
2019-04-13T16:23:11.710Z,16.27
2019-04-13T16:28:24.681Z,16.57
2019-04-13T16:33:39.194Z,14.97
2019-04-13T16:38:51.618Z,13.87
2019-04-13T16:43:41.000Z,13.43
2019-04-13T16:48:55.892Z,13.50
2019-04-13T16:54:00.414Z,10.77
2019-04-13T16:59:07.390Z,12.10
2019-04-13T17:04:23.925Z,12.20
2019-04-13T17:09:27.411Z,14.10
2019-04-13T17:14:24.887Z,12.40
2019-04-13T17:24:59.791Z,10.77
2019-04-13T17:30:17.791Z,13.27
2019-04-13T17:35:28.668Z,13.57
2019-04-13T17:46:09.883Z,12.87
2019-04-13T17:51:37.508Z,14.27
2019-04-13T17:56:36.482Z,15.03
2019-04-13T18:01:53.509Z,14.80
2019-04-13T18:07:09.405Z,14.80
2019-04-13T18:12:41.546Z,14.47
2019-04-13T18:17:32.899Z,14.50
2019-04-13T18:22:31.492Z,16.13
2019-04-13T18:27:34.992Z,15.40
2019-04-13T18:32:36.020Z,16.43
2019-04-13T18:37:32.823Z,14.90
2019-04-13T18:42:28.806Z,14.00
2019-04-13T18:47:24.849Z,15.33
2019-04-13T18:52:21.738Z,15.77
2019-04-13T18:57:17.837Z,15.43
2019-04-13T19:02:14.655Z,15.70
2019-04-13T19:07:10.780Z,15.60
2019-04-13T19:12:06.707Z,17.10
2019-04-13T19:17:02.732Z,15.30
2019-04-13T19:21:58.656Z,16.13
2019-04-13T19:26:54.582Z,14.77
2019-04-13T19:31:50.589Z,15.57
2019-04-13T19:36:46.561Z,18.57
2019-04-13T19:41:42.481Z,16.90
2019-04-13T19:46:38.510Z,16.00
2019-04-13T19:51:41.614Z,15.80
2019-04-13T19:56:37.605Z,15.27
2019-04-13T20:01:33.532Z,18.90
2019-04-13T20:06:29.457Z,19.60
2019-04-13T20:11:25.377Z,20.17
2019-04-13T20:16:21.370Z,19.33
2019-04-13T20:21:22.375Z,21.60
2019-04-13T20:26:18.728Z,19.93
2019-04-13T20:31:15.825Z,16.77
2019-04-13T20:36:16.618Z,20.00
2019-04-13T20:41:12.687Z,18.67
2019-04-13T20:46:10.984Z,21.27
2019-04-13T20:51:12.826Z,22.67
2019-04-13T20:56:09.793Z,22.80
2019-04-13T21:01:06.324Z,22.10
2019-04-13T21:06:02.468Z,23.00
2019-04-13T21:10:58.405Z,21.70
2019-04-13T21:15:55.358Z,19.93
2019-04-13T21:20:59.947Z,19.10
2019-04-13T21:25:56.082Z,21.13
2019-04-13T21:30:53.162Z,21.87
2019-04-13T21:35:49.295Z,20.47
2019-04-13T21:40:45.205Z,20.23
2019-04-13T21:45:41.248Z,21.73
2019-04-13T21:51:00.922Z,19.30
2019-04-13T21:55:57.225Z,19.60
2019-04-13T22:01:17.046Z,14.30
2019-04-13T22:06:13.114Z,17.70
2019-04-13T22:11:10.311Z,16.70
2019-04-13T22:16:06.381Z,11.07
2019-04-13T22:21:06.888Z,17.17
2019-04-13T22:26:03.063Z,17.53
2019-04-13T22:31:09.757Z,17.90
2019-04-13T22:36:16.365Z,19.30
2019-04-13T22:41:13.408Z,18.00
2019-04-13T22:46:10.853Z,19.13
2019-04-13T22:51:27.139Z,18.07
2019-04-13T22:56:37.652Z,21.60
2019-04-13T23:01:39.786Z,20.57
2019-04-13T23:06:35.989Z,20.67
2019-04-13T23:11:32.459Z,19.10
2019-04-13T23:16:28.500Z,18.37
2019-04-13T23:21:25.094Z,17.57
2019-04-13T23:26:21.295Z,21.77
2019-04-13T23:31:17.355Z,22.73
2019-04-13T23:36:13.600Z,19.50
2019-04-13T23:41:10.316Z,21.43
2019-04-13T23:46:06.872Z,20.67
2019-04-13T23:51:03.587Z,21.47
2019-04-13T23:56:02.035Z,20.90
